Home   Weather   Spain   Linares   Past weeks
Flag for Spain

Past Weather in Linares, Spain — Yesterday and Last 2 Weeks

Currently: 91 °F. Sunny. (Weather station: Granada / Aeropuerto, Spain). See more current weather

Past Weather in Linares — Graph

°F

Linares Temperature Yesterday

Maximum temperature yesterday: 93 °F (at 6:30 pm)
Minimum temperature yesterday: 55 °F (at 6:30 am)
Average temperature yesterday: 74 °F

High & Low Weather Summary for the Past Weeks

 TemperatureHumidityPressure
High99 °F (Jun 10, 4:00 pm)100% (Jun 17, 1:00 am)30.15 "Hg (Jun 17, 1:00 am)
Low54 °F (Jun 20, 4:30 am)10% (Jun 10, 4:00 pm)29.83 "Hg (Jun 16, 6:00 pm)
Average74 °F50%30.02 "Hg
* Reported Jun 10 2:30 pm — Jun 25 2:30 pm, Linares. Weather by CustomWeather, © 2021

Note: Actual official high and low records may vary slightly from our data, if they occured in-between our weather recording intervals... More about our weather records

Linares Weather History for the Previous 24 Hours

Scroll right to see more
 ConditionsComfort  
Time TempWeatherWind HumidityBarometerVisibility
2:30 pm
Fri, Jun 25
90 °FSunny.1 mph26%30.07 "Hg10 mi
2:00 pm86 °FSunny.2 mph29%30.07 "Hg10 mi
1:30 pm86 °FSunny.2 mph31%30.09 "Hg10 mi
1:00 pm84 °FSunny.2 mph31%30.09 "Hg10 mi
12:30 pm82 °FSunny.3 mph32%30.09 "Hg10 mi
12:00 pm81 °FPassing clouds.3 mph32%30.09 "HgN/A
11:30 am81 °FSunny.1 mph34%30.12 "Hg10 mi
11:00 am77 °FSunny.1 mph39%30.12 "Hg10 mi
10:30 am77 °FSunny.No wind44%30.12 "Hg10 mi
10:00 am75 °FSunny.1 mph47%30.12 "Hg10 mi
9:30 am73 °FPassing clouds.5 mph50%30.12 "HgN/A
9:00 am72 °FPassing clouds.3 mph57%30.12 "HgN/A
8:30 am68 °FSunny.1 mph69%30.12 "Hg10 mi
8:00 am64 °FSunny.No wind73%30.12 "Hg10 mi
7:30 am63 °FSunny.No wind77%30.12 "Hg10 mi
7:00 am63 °FSunny.No wind83%30.12 "Hg10 mi
6:30 am63 °FClear.No wind83%30.12 "Hg10 mi
6:00 am64 °FClear.2 mph78%30.12 "Hg10 mi
5:30 am64 °FClear.1 mph78%30.12 "Hg10 mi
5:00 am66 °FClear.No wind73%30.12 "Hg10 mi
4:30 am66 °FClear.2 mph73%30.12 "Hg10 mi
4:00 am68 °FClear.6 mph73%30.12 "Hg10 mi
3:30 am68 °FClear.6 mph73%30.12 "Hg10 mi
3:00 am68 °FPassing clouds.6 mph69%30.12 "HgN/A
2:30 am70 °FPassing clouds.9 mph64%30.12 "HgN/A
2:00 am70 °FPassing clouds.7 mph64%30.15 "HgN/A
1:30 am70 °FClear.1 mph57%30.15 "Hg10 mi
1:00 am70 °FClear.No wind57%30.15 "Hg10 mi
12:30 am70 °FClear.2 mph60%30.12 "Hg10 mi
12:00 am72 °FClear.No wind57%30.12 "Hg10 mi
11:30 pm
Thu, Jun 24
73 °FPassing clouds.3 mph50%30.12 "HgN/A
11:00 pm75 °FPassing clouds.5 mph47%30.12 "HgN/A
10:30 pm77 °FClear.1 mph44%30.09 "Hg10 mi
10:00 pm77 °FPassing clouds.5 mph44%30.09 "HgN/A
9:30 pm79 °FPassing clouds.13 mph42%30.07 "HgN/A
9:00 pm81 °FPassing clouds.12 mph42%30.07 "HgN/A
8:30 pm84 °FPassing clouds.16 mph37%30.04 "HgN/A
8:00 pm86 °FPassing clouds.17 mph35%30.04 "HgN/A
7:30 pm88 °FPassing clouds.15 mph33%30.04 "HgN/A
7:00 pm90 °FPassing clouds.15 mph29%30.04 "HgN/A
6:30 pm93 °FPassing clouds.3 mph23%30.04 "HgN/A
6:00 pm91 °FPassing clouds.6 mph23%30.04 "HgN/A
5:30 pm90 °FPassing clouds.5 mph26%30.04 "HgN/A
5:00 pm90 °FPassing clouds.5 mph24%30.04 "HgN/A
4:30 pm91 °FPassing clouds.5 mph23%30.07 "HgN/A
4:00 pm88 °FPassing clouds.2 mph25%30.07 "HgN/A
Weather by CustomWeather, © 2021

See weather overview